Monforte del Cid, Spain
Current Conditions -  °F | °C
As of 9:30 AM on Wednesday 26 Nov 2014 (Local Time) from LEAL Reporting Station
Scattered Clouds Scattered Clouds  
Wind Chill: 59°   Ceiling: Unl
Heat Index: 59°   Visibility: 6mi
Dew Point: 57°   Wind: 2mph
Humidity: 94%   Direction: NA
Pressure: 29.94"   Gusts: NA
Location:  38.38°N, 0.73°W
Report Text: LEAL 260830Z VRB02KT 9999 FEW018 SCT060 15/14 Q1014 NOSIG
Loading
Personal Weather Stations






























Interactive Weather Map New forecast layout! Learn more

10-Day Weather Forecast

Advertisements
Track Severe Weather on mobile